sensor_id;sensor_type;location;lat;lon;timestamp;temperature;humidity
3202;DHT22;34843;48.744;8.958;2022-11-21T00:01:33;4.80;99.90
3202;DHT22;34843;48.744;8.958;2022-11-21T00:03:58;4.70;99.90
3202;DHT22;34843;48.744;8.958;2022-11-21T00:06:24;4.60;99.90
3202;DHT22;34843;48.744;8.958;2022-11-21T00:08:50;4.60;99.90
3202;DHT22;34843;48.744;8.958;2022-11-21T00:11:15;4.60;99.90
3202;DHT22;34843;48.744;8.958;2022-11-21T00:13:41;4.50;99.90
3202;DHT22;34843;48.744;8.958;2022-11-21T00:16:10;4.50;99.90
3202;DHT22;34843;48.744;8.958;2022-11-21T00:18:36;4.50;99.90
3202;DHT22;34843;48.744;8.958;2022-11-21T00:21:11;4.50;99.90
3202;DHT22;34843;48.744;8.958;2022-11-21T00:23:37;4.50;99.90
3202;DHT22;34843;48.744;8.958;2022-11-21T00:26:04;4.50;99.90
3202;DHT22;34843;48.744;8.958;2022-11-21T00:28:30;4.50;99.90
3202;DHT22;34843;48.744;8.958;2022-11-21T00:30:55;4.50;99.90
3202;DHT22;34843;48.744;8.958;2022-11-21T00:33:21;4.40;99.90
3202;DHT22;34843;48.744;8.958;2022-11-21T00:35:48;4.40;99.90
3202;DHT22;34843;48.744;8.958;2022-11-21T00:38:14;4.40;99.90
3202;DHT22;34843;48.744;8.958;2022-11-21T00:40:42;4.30;99.90
3202;DHT22;34843;48.744;8.958;2022-11-21T00:43:07;4.20;99.90
3202;DHT22;34843;48.744;8.958;2022-11-21T00:45:33;4.20;99.90
3202;DHT22;34843;48.744;8.958;2022-11-21T00:47:58;4.10;99.90
3202;DHT22;34843;48.744;8.958;2022-11-21T00:50:24;4.10;99.90
3202;DHT22;34843;48.744;8.958;2022-11-21T00:52:54;4.00;99.90
3202;DHT22;34843;48.744;8.958;2022-11-21T00:55:20;4.00;99.90
3202;DHT22;34843;48.744;8.958;2022-11-21T00:57:46;3.90;99.90
3202;DHT22;34843;48.744;8.958;2022-11-21T01:00:12;3.90;99.90
3202;DHT22;34843;48.744;8.958;2022-11-21T01:02:37;3.90;99.90
3202;DHT22;34843;48.744;8.958;2022-11-21T01:05:03;3.90;99.90
3202;DHT22;34843;48.744;8.958;2022-11-21T01:07:29;4.00;99.90
3202;DHT22;34843;48.744;8.958;2022-11-21T01:09:55;4.00;99.90
3202;DHT22;34843;48.744;8.958;2022-11-21T01:12:21;4.10;99.90
3202;DHT22;34843;48.744;8.958;2022-11-21T01:14:46;4.10;99.90
3202;DHT22;34843;48.744;8.958;2022-11-21T01:17:12;4.20;99.90
3202;DHT22;34843;48.744;8.958;2022-11-21T01:19:37;4.20;99.90
3202;DHT22;34843;48.744;8.958;2022-11-21T01:22:03;4.20;99.90
3202;DHT22;34843;48.744;8.958;2022-11-21T01:24:28;4.20;99.90
3202;DHT22;34843;48.744;8.958;2022-11-21T01:26:54;4.30;99.90
3202;DHT22;34843;48.744;8.958;2022-11-21T01:29:19;4.20;99.90
3202;DHT22;34843;48.744;8.958;2022-11-21T01:31:45;4.20;99.90
3202;DHT22;34843;48.744;8.958;2022-11-21T01:34:10;4.20;99.90
3202;DHT22;34843;48.744;8.958;2022-11-21T01:36:36;4.20;99.90
3202;DHT22;34843;48.744;8.958;2022-11-21T01:39:05;4.20;99.90
3202;DHT22;34843;48.744;8.958;2022-11-21T01:41:35;4.20;99.90
3202;DHT22;34843;48.744;8.958;2022-11-21T01:44:05;4.20;99.90
3202;DHT22;34843;48.744;8.958;2022-11-21T01:46:31;4.20;99.90
3202;DHT22;34843;48.744;8.958;2022-11-21T01:49:10;4.30;99.90
3202;DHT22;34843;48.744;8.958;2022-11-21T01:51:42;4.40;99.90
3202;DHT22;34843;48.744;8.958;2022-11-21T01:54:18;4.40;99.90
3202;DHT22;34843;48.744;8.958;2022-11-21T01:56:50;4.40;99.90
3202;DHT22;34843;48.744;8.958;2022-11-21T01:59:26;4.40;99.90
3202;DHT22;34843;48.744;8.958;2022-11-21T02:01:54;4.40;99.90
3202;DHT22;34843;48.744;8.958;2022-11-21T02:04:21;4.30;99.90
3202;DHT22;34843;48.744;8.958;2022-11-21T02:06:50;4.30;99.90
3202;DHT22;34843;48.744;8.958;2022-11-21T02:09:15;4.30;99.90
3202;DHT22;34843;48.744;8.958;2022-11-21T02:11:46;4.20;99.90
3202;DHT22;34843;48.744;8.958;2022-11-21T02:14:13;4.20;99.90
3202;DHT22;34843;48.744;8.958;2022-11-21T02:16:39;4.20;99.90
3202;DHT22;34843;48.744;8.958;2022-11-21T02:19:09;4.20;99.90
3202;DHT22;34843;48.744;8.958;2022-11-21T02:21:59;4.10;99.90
3202;DHT22;34843;48.744;8.958;2022-11-21T02:24:44;4.10;99.90
3202;DHT22;34843;48.744;8.958;2022-11-21T02:27:10;4.00;99.90
3202;DHT22;34843;48.744;8.958;2022-11-21T02:29:37;4.00;99.90
3202;DHT22;34843;48.744;8.958;2022-11-21T02:32:04;4.00;99.90
3202;DHT22;34843;48.744;8.958;2022-11-21T02:34:31;4.00;99.90
3202;DHT22;34843;48.744;8.958;2022-11-21T02:36:56;4.00;99.90
3202;DHT22;34843;48.744;8.958;2022-11-21T02:39:29;3.90;99.90
3202;DHT22;34843;48.744;8.958;2022-11-21T02:44:39;3.90;99.90
3202;DHT22;34843;48.744;8.958;2022-11-21T02:47:08;3.90;99.90
3202;DHT22;34843;48.744;8.958;2022-11-21T02:49:47;3.90;99.90
3202;DHT22;34843;48.744;8.958;2022-11-21T02:52:13;3.90;99.90
3202;DHT22;34843;48.744;8.958;2022-11-21T02:54:39;3.90;99.90
3202;DHT22;34843;48.744;8.958;2022-11-21T02:57:04;4.00;99.90
3202;DHT22;34843;48.744;8.958;2022-11-21T02:59:30;4.00;99.90
3202;DHT22;34843;48.744;8.958;2022-11-21T03:01:55;4.10;99.90
3202;DHT22;34843;48.744;8.958;2022-11-21T03:04:24;4.10;99.90
3202;DHT22;34843;48.744;8.958;2022-11-21T03:06:50;4.00;99.90
3202;DHT22;34843;48.744;8.958;2022-11-21T03:09:16;4.00;99.90
3202;DHT22;34843;48.744;8.958;2022-11-21T03:11:41;4.00;99.90
3202;DHT22;34843;48.744;8.958;2022-11-21T03:14:07;4.00;99.90
3202;DHT22;34843;48.744;8.958;2022-11-21T03:16:32;4.10;99.90
3202;DHT22;34843;48.744;8.958;2022-11-21T03:18:58;4.10;99.90
3202;DHT22;34843;48.744;8.958;2022-11-21T03:21:24;4.10;99.90
3202;DHT22;34843;48.744;8.958;2022-11-21T03:23:49;4.10;99.90
3202;DHT22;34843;48.744;8.958;2022-11-21T03:26:15;4.00;99.90
3202;DHT22;34843;48.744;8.958;2022-11-21T03:28:41;4.00;99.90
3202;DHT22;34843;48.744;8.958;2022-11-21T03:31:07;4.00;99.90
3202;DHT22;34843;48.744;8.958;2022-11-21T03:33:32;3.90;99.90
3202;DHT22;34843;48.744;8.958;2022-11-21T03:35:58;3.90;99.90
3202;DHT22;34843;48.744;8.958;2022-11-21T03:38:23;3.90;99.90
3202;DHT22;34843;48.744;8.958;2022-11-21T03:40:49;3.90;99.90
3202;DHT22;34843;48.744;8.958;2022-11-21T03:43:15;3.80;99.90
3202;DHT22;34843;48.744;8.958;2022-11-21T03:45:40;3.90;99.90
3202;DHT22;34843;48.744;8.958;2022-11-21T03:48:06;3.90;99.90
3202;DHT22;34843;48.744;8.958;2022-11-21T03:50:31;3.90;99.90
3202;DHT22;34843;48.744;8.958;2022-11-21T03:52:57;3.90;99.90
3202;DHT22;34843;48.744;8.958;2022-11-21T03:55:23;3.90;99.90
3202;DHT22;34843;48.744;8.958;2022-11-21T03:57:48;3.90;99.90
3202;DHT22;34843;48.744;8.958;2022-11-21T04:00:14;4.00;99.90
3202;DHT22;34843;48.744;8.958;2022-11-21T04:02:40;4.00;99.90
3202;DHT22;34843;48.744;8.958;2022-11-21T04:05:06;4.00;99.90
3202;DHT22;34843;48.744;8.958;2022-11-21T04:07:31;4.10;99.90
3202;DHT22;34843;48.744;8.958;2022-11-21T04:09:57;4.10;99.90
3202;DHT22;34843;48.744;8.958;2022-11-21T04:12:22;4.20;99.90
3202;DHT22;34843;48.744;8.958;2022-11-21T04:14:48;4.20;99.90
3202;DHT22;34843;48.744;8.958;2022-11-21T04:17:13;4.20;99.90
3202;DHT22;34843;48.744;8.958;2022-11-21T04:19:39;4.20;99.90
3202;DHT22;34843;48.744;8.958;2022-11-21T04:22:04;4.30;99.90
3202;DHT22;34843;48.744;8.958;2022-11-21T04:24:30;4.40;99.90
3202;DHT22;34843;48.744;8.958;2022-11-21T04:26:55;4.40;99.90
3202;DHT22;34843;48.744;8.958;2022-11-21T04:29:21;4.40;99.90
3202;DHT22;34843;48.744;8.958;2022-11-21T04:31:46;4.50;99.90
3202;DHT22;34843;48.744;8.958;2022-11-21T04:34:12;4.50;99.90
3202;DHT22;34843;48.744;8.958;2022-11-21T04:36:37;4.50;99.90
3202;DHT22;34843;48.744;8.958;2022-11-21T04:39:03;4.60;99.90
3202;DHT22;34843;48.744;8.958;2022-11-21T04:41:29;4.60;99.90
3202;DHT22;34843;48.744;8.958;2022-11-21T04:43:54;4.60;99.90
3202;DHT22;34843;48.744;8.958;2022-11-21T04:46:20;4.60;99.90
3202;DHT22;34843;48.744;8.958;2022-11-21T04:48:45;4.70;99.90
3202;DHT22;34843;48.744;8.958;2022-11-21T04:51:11;4.70;99.90
3202;DHT22;34843;48.744;8.958;2022-11-21T04:53:36;4.70;99.90
3202;DHT22;34843;48.744;8.958;2022-11-21T04:56:03;4.70;99.90
3202;DHT22;34843;48.744;8.958;2022-11-21T04:58:29;4.70;99.90
3202;DHT22;34843;48.744;8.958;2022-11-21T05:00:55;4.70;99.90
3202;DHT22;34843;48.744;8.958;2022-11-21T05:03:21;4.70;99.90
3202;DHT22;34843;48.744;8.958;2022-11-21T05:05:46;4.70;99.90
3202;DHT22;34843;48.744;8.958;2022-11-21T05:08:12;4.60;99.90
3202;DHT22;34843;48.744;8.958;2022-11-21T05:10:38;4.50;99.90
3202;DHT22;34843;48.744;8.958;2022-11-21T05:13:23;4.50;99.90
3202;DHT22;34843;48.744;8.958;2022-11-21T05:15:55;4.50;99.90
3202;DHT22;34843;48.744;8.958;2022-11-21T05:18:20;4.40;99.90
3202;DHT22;34843;48.744;8.958;2022-11-21T05:20:46;4.40;99.90
3202;DHT22;34843;48.744;8.958;2022-11-21T05:23:11;4.40;99.90
3202;DHT22;34843;48.744;8.958;2022-11-21T05:25:37;4.50;99.90
3202;DHT22;34843;48.744;8.958;2022-11-21T05:28:02;4.50;99.90
3202;DHT22;34843;48.744;8.958;2022-11-21T05:30:28;4.50;99.90
3202;DHT22;34843;48.744;8.958;2022-11-21T05:32:53;4.50;99.90
3202;DHT22;34843;48.744;8.958;2022-11-21T05:35:19;4.50;99.90
3202;DHT22;34843;48.744;8.958;2022-11-21T05:37:45;4.50;99.90
3202;DHT22;34843;48.744;8.958;2022-11-21T05:40:10;4.50;99.90
3202;DHT22;34843;48.744;8.958;2022-11-21T05:42:41;4.50;99.90
3202;DHT22;34843;48.744;8.958;2022-11-21T05:45:25;4.50;99.90
3202;DHT22;34843;48.744;8.958;2022-11-21T05:47:51;4.50;99.90
3202;DHT22;34843;48.744;8.958;2022-11-21T05:50:16;4.60;99.90
3202;DHT22;34843;48.744;8.958;2022-11-21T05:52:42;4.50;99.90
3202;DHT22;34843;48.744;8.958;2022-11-21T05:55:07;4.60;99.90
3202;DHT22;34843;48.744;8.958;2022-11-21T05:57:33;4.50;99.90
3202;DHT22;34843;48.744;8.958;2022-11-21T06:02:24;4.50;99.90
3202;DHT22;34843;48.744;8.958;2022-11-21T06:05:09;4.40;99.90
3202;DHT22;34843;48.744;8.958;2022-11-21T06:07:34;4.40;99.90
3202;DHT22;34843;48.744;8.958;2022-11-21T06:10:00;4.40;99.90
3202;DHT22;34843;48.744;8.958;2022-11-21T06:12:25;4.40;99.90
3202;DHT22;34843;48.744;8.958;2022-11-21T06:14:51;4.40;99.90
3202;DHT22;34843;48.744;8.958;2022-11-21T06:17:16;4.30;99.90
3202;DHT22;34843;48.744;8.958;2022-11-21T06:19:42;4.30;99.90
3202;DHT22;34843;48.744;8.958;2022-11-21T06:22:07;4.20;99.90
3202;DHT22;34843;48.744;8.958;2022-11-21T06:24:33;4.20;99.90
3202;DHT22;34843;48.744;8.958;2022-11-21T06:26:58;4.20;99.90
3202;DHT22;34843;48.744;8.958;2022-11-21T06:29:24;4.10;99.90
3202;DHT22;34843;48.744;8.958;2022-11-21T06:31:49;4.00;99.90
3202;DHT22;34843;48.744;8.958;2022-11-21T06:34:15;4.00;99.90
3202;DHT22;34843;48.744;8.958;2022-11-21T06:36:40;4.00;99.90
3202;DHT22;34843;48.744;8.958;2022-11-21T06:39:06;3.90;99.90
3202;DHT22;34843;48.744;8.958;2022-11-21T06:41:32;3.90;99.90
3202;DHT22;34843;48.744;8.958;2022-11-21T06:43:58;3.80;99.90
3202;DHT22;34843;48.744;8.958;2022-11-21T06:46:25;3.80;99.90
3202;DHT22;34843;48.744;8.958;2022-11-21T06:48:51;3.80;99.90
3202;DHT22;34843;48.744;8.958;2022-11-21T06:51:19;3.70;99.90
3202;DHT22;34843;48.744;8.958;2022-11-21T06:53:45;3.70;99.90
3202;DHT22;34843;48.744;8.958;2022-11-21T06:56:11;3.70;99.90
3202;DHT22;34843;48.744;8.958;2022-11-21T06:58:36;3.60;99.90
3202;DHT22;34843;48.744;8.958;2022-11-21T07:01:07;3.60;99.90
3202;DHT22;34843;48.744;8.958;2022-11-21T07:03:33;3.60;99.90
3202;DHT22;34843;48.744;8.958;2022-11-21T07:06:00;3.50;99.90
3202;DHT22;34843;48.744;8.958;2022-11-21T07:08:30;3.50;99.90
3202;DHT22;34843;48.744;8.958;2022-11-21T07:11:04;3.50;99.90
3202;DHT22;34843;48.744;8.958;2022-11-21T07:13:29;3.50;99.90
3202;DHT22;34843;48.744;8.958;2022-11-21T07:16:07;3.50;99.90
3202;DHT22;34843;48.744;8.958;2022-11-21T07:18:33;3.60;99.90
3202;DHT22;34843;48.744;8.958;2022-11-21T07:21:00;3.60;99.90
3202;DHT22;34843;48.744;8.958;2022-11-21T07:23:26;3.70;99.90
3202;DHT22;34843;48.744;8.958;2022-11-21T07:25:52;3.70;99.90
3202;DHT22;34843;48.744;8.958;2022-11-21T07:28:18;3.90;99.90
3202;DHT22;34843;48.744;8.958;2022-11-21T07:30:43;4.00;99.90
3202;DHT22;34843;48.744;8.958;2022-11-21T07:33:09;4.00;99.90
3202;DHT22;34843;48.744;8.958;2022-11-21T07:35:35;4.00;99.90
3202;DHT22;34843;48.744;8.958;2022-11-21T07:38:02;4.00;99.90
3202;DHT22;34843;48.744;8.958;2022-11-21T07:40:28;3.90;99.90
3202;DHT22;34843;48.744;8.958;2022-11-21T07:42:59;4.00;99.90
3202;DHT22;34843;48.744;8.958;2022-11-21T07:45:24;4.00;99.90
3202;DHT22;34843;48.744;8.958;2022-11-21T07:47:59;4.10;99.90
3202;DHT22;34843;48.744;8.958;2022-11-21T07:50:25;4.20;99.90
3202;DHT22;34843;48.744;8.958;2022-11-21T07:52:56;4.20;99.90
3202;DHT22;34843;48.744;8.958;2022-11-21T07:55:22;4.20;99.90
3202;DHT22;34843;48.744;8.958;2022-11-21T07:57:56;4.20;99.90
3202;DHT22;34843;48.744;8.958;2022-11-21T08:00:22;4.30;99.90
3202;DHT22;34843;48.744;8.958;2022-11-21T08:02:47;4.30;99.90
3202;DHT22;34843;48.744;8.958;2022-11-21T08:05:13;4.40;99.90
3202;DHT22;34843;48.744;8.958;2022-11-21T08:07:38;4.40;99.90
3202;DHT22;34843;48.744;8.958;2022-11-21T08:10:04;4.40;99.90
3202;DHT22;34843;48.744;8.958;2022-11-21T08:12:31;4.40;99.90
3202;DHT22;34843;48.744;8.958;2022-11-21T08:14:57;4.40;99.90
3202;DHT22;34843;48.744;8.958;2022-11-21T08:17:25;4.30;99.90
3202;DHT22;34843;48.744;8.958;2022-11-21T08:19:50;4.30;99.90
3202;DHT22;34843;48.744;8.958;2022-11-21T08:22:16;4.30;99.90
3202;DHT22;34843;48.744;8.958;2022-11-21T08:24:41;4.30;99.90
3202;DHT22;34843;48.744;8.958;2022-11-21T08:27:07;4.40;99.90
3202;DHT22;34843;48.744;8.958;2022-11-21T08:29:32;4.50;99.90
3202;DHT22;34843;48.744;8.958;2022-11-21T08:31:58;4.50;99.90
3202;DHT22;34843;48.744;8.958;2022-11-21T08:34:23;4.60;99.90
3202;DHT22;34843;48.744;8.958;2022-11-21T08:36:49;4.60;99.90
3202;DHT22;34843;48.744;8.958;2022-11-21T08:39:14;4.80;99.90
3202;DHT22;34843;48.744;8.958;2022-11-21T08:41:40;4.80;99.90
3202;DHT22;34843;48.744;8.958;2022-11-21T08:44:24;4.90;99.90
3202;DHT22;34843;48.744;8.958;2022-11-21T08:46:49;5.00;99.90
3202;DHT22;34843;48.744;8.958;2022-11-21T08:49:15;5.10;99.90
3202;DHT22;34843;48.744;8.958;2022-11-21T08:51:40;5.10;99.90
3202;DHT22;34843;48.744;8.958;2022-11-21T08:54:08;5.20;99.90
3202;DHT22;34843;48.744;8.958;2022-11-21T08:56:33;5.30;99.90
3202;DHT22;34843;48.744;8.958;2022-11-21T08:58:59;5.50;99.90
3202;DHT22;34843;48.744;8.958;2022-11-21T09:01:24;5.50;99.90
3202;DHT22;34843;48.744;8.958;2022-11-21T09:03:50;5.60;99.90
3202;DHT22;34843;48.744;8.958;2022-11-21T09:06:15;5.60;99.90
3202;DHT22;34843;48.744;8.958;2022-11-21T09:08:41;5.70;99.90
3202;DHT22;34843;48.744;8.958;2022-11-21T09:11:08;5.70;99.90
3202;DHT22;34843;48.744;8.958;2022-11-21T09:13:35;5.70;99.90
3202;DHT22;34843;48.744;8.958;2022-11-21T09:16:01;5.80;99.90
3202;DHT22;34843;48.744;8.958;2022-11-21T09:19:05;5.80;99.90
3202;DHT22;34843;48.744;8.958;2022-11-21T09:21:31;6.00;99.90
3202;DHT22;34843;48.744;8.958;2022-11-21T09:23:56;6.00;99.90
3202;DHT22;34843;48.744;8.958;2022-11-21T09:26:21;6.20;99.90
3202;DHT22;34843;48.744;8.958;2022-11-21T09:28:47;6.40;99.90
3202;DHT22;34843;48.744;8.958;2022-11-21T09:31:12;6.40;99.90
3202;DHT22;34843;48.744;8.958;2022-11-21T09:33:38;6.50;99.90
3202;DHT22;34843;48.744;8.958;2022-11-21T09:36:04;6.60;99.90
3202;DHT22;34843;48.744;8.958;2022-11-21T09:38:29;6.70;99.90
3202;DHT22;34843;48.744;8.958;2022-11-21T09:41:08;6.90;99.90
3202;DHT22;34843;48.744;8.958;2022-11-21T09:46:56;7.10;99.90
3202;DHT22;34843;48.744;8.958;2022-11-21T09:49:25;7.10;99.90
3202;DHT22;34843;48.744;8.958;2022-11-21T09:51:51;7.20;99.90
3202;DHT22;34843;48.744;8.958;2022-11-21T09:54:21;7.20;99.90
3202;DHT22;34843;48.744;8.958;2022-11-21T09:56:47;7.20;99.90
3202;DHT22;34843;48.744;8.958;2022-11-21T09:59:35;7.20;99.90
3202;DHT22;34843;48.744;8.958;2022-11-21T10:02:02;7.20;99.90
3202;DHT22;34843;48.744;8.958;2022-11-21T10:04:35;7.20;99.90
3202;DHT22;34843;48.744;8.958;2022-11-21T10:07:15;7.20;99.90
3202;DHT22;34843;48.744;8.958;2022-11-21T10:10:23;7.10;99.90
3202;DHT22;34843;48.744;8.958;2022-11-21T10:12:56;7.10;99.90
3202;DHT22;34843;48.744;8.958;2022-11-21T10:31:47;7.20;99.90
3202;DHT22;34843;48.744;8.958;2022-11-21T10:34:20;7.10;99.90
3202;DHT22;34843;48.744;8.958;2022-11-21T10:36:56;7.20;99.90
3202;DHT22;34843;48.744;8.958;2022-11-21T10:39:36;7.20;99.90
3202;DHT22;34843;48.744;8.958;2022-11-21T10:44:54;7.40;99.90
3202;DHT22;34843;48.744;8.958;2022-11-21T10:47:39;7.50;99.90
3202;DHT22;34843;48.744;8.958;2022-11-21T10:52:37;7.80;99.90
3202;DHT22;34843;48.744;8.958;2022-11-21T10:57:43;8.30;99.90
3202;DHT22;34843;48.744;8.958;2022-11-21T11:02:58;8.40;99.90
3202;DHT22;34843;48.744;8.958;2022-11-21T11:05:28;8.40;99.90
3202;DHT22;34843;48.744;8.958;2022-11-21T11:08:08;8.40;99.90
3202;DHT22;34843;48.744;8.958;2022-11-21T11:10:39;8.40;99.90
3202;DHT22;34843;48.744;8.958;2022-11-21T11:13:19;8.40;99.90
3202;DHT22;34843;48.744;8.958;2022-11-21T11:18:23;8.30;99.90
3202;DHT22;34843;48.744;8.958;2022-11-21T11:20:49;8.20;99.90
3202;DHT22;34843;48.744;8.958;2022-11-21T11:23:25;8.20;99.90
3202;DHT22;34843;48.744;8.958;2022-11-21T11:25:58;8.30;99.90
3202;DHT22;34843;48.744;8.958;2022-11-21T11:28:25;8.30;99.90
3202;DHT22;34843;48.744;8.958;2022-11-21T11:30:53;8.30;99.90
3202;DHT22;34843;48.744;8.958;2022-11-21T11:33:34;8.40;99.90
3202;DHT22;34843;48.744;8.958;2022-11-21T11:36:36;8.40;99.90
3202;DHT22;34843;48.744;8.958;2022-11-21T11:39:16;8.30;99.90
3202;DHT22;34843;48.744;8.958;2022-11-21T11:45:14;8.30;99.90
3202;DHT22;34843;48.744;8.958;2022-11-21T11:48:06;8.40;99.90
3202;DHT22;34843;48.744;8.958;2022-11-21T11:51:19;8.40;99.90
3202;DHT22;34843;48.744;8.958;2022-11-21T11:53:40;8.30;99.90
3202;DHT22;34843;48.744;8.958;2022-11-21T11:56:23;8.30;99.90
3202;DHT22;34843;48.744;8.958;2022-11-21T11:59:02;8.30;99.90
3202;DHT22;34843;48.744;8.958;2022-11-21T12:04:21;8.30;99.90
3202;DHT22;34843;48.744;8.958;2022-11-21T12:09:58;8.20;99.90
3202;DHT22;34843;48.744;8.958;2022-11-21T12:12:36;8.20;99.90
3202;DHT22;34843;48.744;8.958;2022-11-21T12:15:20;8.20;99.90
3202;DHT22;34843;48.744;8.958;2022-11-21T12:34:45;8.40;99.90
3202;DHT22;34843;48.744;8.958;2022-11-21T12:37:32;8.50;99.90
3202;DHT22;34843;48.744;8.958;2022-11-21T12:43:06;8.80;99.90
3202;DHT22;34843;48.744;8.958;2022-11-21T12:45:35;8.90;99.90
3202;DHT22;34843;48.744;8.958;2022-11-21T12:57:11;9.00;99.90
3202;DHT22;34843;48.744;8.958;2022-11-21T13:05:12;9.10;99.90
3202;DHT22;34843;48.744;8.958;2022-11-21T13:07:40;9.10;99.90
3202;DHT22;34843;48.744;8.958;2022-11-21T13:10:11;9.10;99.90
3202;DHT22;34843;48.744;8.958;2022-11-21T13:12:52;9.20;99.90
3202;DHT22;34843;48.744;8.958;2022-11-21T13:15:30;9.10;99.90
3202;DHT22;34843;48.744;8.958;2022-11-21T13:18:22;9.00;99.90
3202;DHT22;34843;48.744;8.958;2022-11-21T13:20:51;9.10;99.90
3202;DHT22;34843;48.744;8.958;2022-11-21T13:23:40;9.10;99.90
3202;DHT22;34843;48.744;8.958;2022-11-21T13:31:35;9.20;99.90
3202;DHT22;34843;48.744;8.958;2022-11-21T13:34:01;9.30;99.90
3202;DHT22;34843;48.744;8.958;2022-11-21T13:47:00;9.20;99.90
3202;DHT22;34843;48.744;8.958;2022-11-21T13:57:41;8.70;99.90
3202;DHT22;34843;48.744;8.958;2022-11-21T14:00:31;8.70;99.90
3202;DHT22;34843;48.744;8.958;2022-11-21T14:06:13;8.50;99.90
3202;DHT22;34843;48.744;8.958;2022-11-21T14:08:42;8.40;99.90
3202;DHT22;34843;48.744;8.958;2022-11-21T14:11:28;8.30;99.90
3202;DHT22;34843;48.744;8.958;2022-11-21T14:13:57;8.40;99.90
3202;DHT22;34843;48.744;8.958;2022-11-21T14:16:34;8.40;99.90
3202;DHT22;34843;48.744;8.958;2022-11-21T14:19:01;8.30;99.90
3202;DHT22;34843;48.744;8.958;2022-11-21T14:21:29;8.30;99.90
3202;DHT22;34843;48.744;8.958;2022-11-21T14:23:59;8.30;99.90
3202;DHT22;34843;48.744;8.958;2022-11-21T14:26:30;8.30;99.90
3202;DHT22;34843;48.744;8.958;2022-11-21T14:31:52;8.30;99.90
3202;DHT22;34843;48.744;8.958;2022-11-21T14:34:26;8.20;99.90
3202;DHT22;34843;48.744;8.958;2022-11-21T14:36:53;8.20;99.90
3202;DHT22;34843;48.744;8.958;2022-11-21T14:39:24;8.10;99.90
3202;DHT22;34843;48.744;8.958;2022-11-21T14:41:51;8.10;99.90
3202;DHT22;34843;48.744;8.958;2022-11-21T14:44:20;8.00;99.90
3202;DHT22;34843;48.744;8.958;2022-11-21T14:46:46;8.00;99.90
3202;DHT22;34843;48.744;8.958;2022-11-21T14:51:42;7.90;99.90
3202;DHT22;34843;48.744;8.958;2022-11-21T14:54:26;7.80;99.90
3202;DHT22;34843;48.744;8.958;2022-11-21T14:56:58;7.80;99.90
3202;DHT22;34843;48.744;8.958;2022-11-21T14:59:36;7.80;99.90
3202;DHT22;34843;48.744;8.958;2022-11-21T15:02:17;7.70;99.90
3202;DHT22;34843;48.744;8.958;2022-11-21T15:04:43;7.60;99.90
3202;DHT22;34843;48.744;8.958;2022-11-21T15:07:20;7.60;99.90
3202;DHT22;34843;48.744;8.958;2022-11-21T15:09:46;7.60;99.90
3202;DHT22;34843;48.744;8.958;2022-11-21T15:12:13;7.50;99.90
3202;DHT22;34843;48.744;8.958;2022-11-21T15:14:45;7.40;99.90
3202;DHT22;34843;48.744;8.958;2022-11-21T15:17:16;7.30;99.90
3202;DHT22;34843;48.744;8.958;2022-11-21T15:19:43;7.20;99.90
3202;DHT22;34843;48.744;8.958;2022-11-21T15:22:22;7.10;99.90
3202;DHT22;34843;48.744;8.958;2022-11-21T15:25:12;7.00;99.90
3202;DHT22;34843;48.744;8.958;2022-11-21T15:27:46;6.90;99.90
3202;DHT22;34843;48.744;8.958;2022-11-21T15:32:57;6.60;99.90
3202;DHT22;34843;48.744;8.958;2022-11-21T15:38:19;6.50;99.90
3202;DHT22;34843;48.744;8.958;2022-11-21T15:43:42;6.20;99.90
3202;DHT22;34843;48.744;8.958;2022-11-21T15:46:25;6.20;99.90
3202;DHT22;34843;48.744;8.958;2022-11-21T15:48:53;6.10;99.90
3202;DHT22;34843;48.744;8.958;2022-11-21T15:51:21;6.00;99.90
3202;DHT22;34843;48.744;8.958;2022-11-21T15:53:47;5.80;99.90
3202;DHT22;34843;48.744;8.958;2022-11-21T15:56:15;5.70;99.90
3202;DHT22;34843;48.744;8.958;2022-11-21T15:58:41;5.70;99.90
3202;DHT22;34843;48.744;8.958;2022-11-21T16:01:33;5.60;99.90
3202;DHT22;34843;48.744;8.958;2022-11-21T16:04:03;5.50;99.90
3202;DHT22;34843;48.744;8.958;2022-11-21T16:06:30;5.50;99.90
3202;DHT22;34843;48.744;8.958;2022-11-21T16:08:56;5.50;99.90
3202;DHT22;34843;48.744;8.958;2022-11-21T16:11:24;5.30;99.90
3202;DHT22;34843;48.744;8.958;2022-11-21T16:13:52;5.20;99.90
3202;DHT22;34843;48.744;8.958;2022-11-21T16:16:19;5.20;99.90
3202;DHT22;34843;48.744;8.958;2022-11-21T16:18:45;5.10;99.90
3202;DHT22;34843;48.744;8.958;2022-11-21T16:21:11;5.00;99.90
3202;DHT22;34843;48.744;8.958;2022-11-21T16:23:37;4.90;99.90
3202;DHT22;34843;48.744;8.958;2022-11-21T16:26:04;4.90;99.90
3202;DHT22;34843;48.744;8.958;2022-11-21T16:28:30;4.80;99.90
3202;DHT22;34843;48.744;8.958;2022-11-21T16:30:59;4.80;99.90
3202;DHT22;34843;48.744;8.958;2022-11-21T16:33:25;4.70;99.90
3202;DHT22;34843;48.744;8.958;2022-11-21T16:35:51;4.70;99.90
3202;DHT22;34843;48.744;8.958;2022-11-21T16:38:22;4.60;99.90
3202;DHT22;34843;48.744;8.958;2022-11-21T16:40:58;4.50;99.90
3202;DHT22;34843;48.744;8.958;2022-11-21T16:43:25;4.40;99.90
3202;DHT22;34843;48.744;8.958;2022-11-21T16:45:51;4.40;99.90
3202;DHT22;34843;48.744;8.958;2022-11-21T16:48:18;4.30;99.90
3202;DHT22;34843;48.744;8.958;2022-11-21T16:50:44;4.30;99.90
3202;DHT22;34843;48.744;8.958;2022-11-21T16:53:10;4.20;99.90
3202;DHT22;34843;48.744;8.958;2022-11-21T16:55:35;4.20;99.90
3202;DHT22;34843;48.744;8.958;2022-11-21T16:58:01;4.10;99.90
3202;DHT22;34843;48.744;8.958;2022-11-21T17:00:27;4.10;99.90
3202;DHT22;34843;48.744;8.958;2022-11-21T17:02:52;4.00;99.90
3202;DHT22;34843;48.744;8.958;2022-11-21T17:05:19;4.10;99.90
3202;DHT22;34843;48.744;8.958;2022-11-21T17:07:44;4.00;99.90
3202;DHT22;34843;48.744;8.958;2022-11-21T17:10:10;4.00;99.90
3202;DHT22;34843;48.744;8.958;2022-11-21T17:12:38;4.00;99.90
3202;DHT22;34843;48.744;8.958;2022-11-21T17:15:05;4.00;99.90
3202;DHT22;34843;48.744;8.958;2022-11-21T17:17:30;4.00;99.90
3202;DHT22;34843;48.744;8.958;2022-11-21T17:19:56;4.00;99.90
3202;DHT22;34843;48.744;8.958;2022-11-21T17:22:21;4.10;99.90
3202;DHT22;34843;48.744;8.958;2022-11-21T17:24:50;4.10;99.90
3202;DHT22;34843;48.744;8.958;2022-11-21T17:27:20;4.10;99.90
3202;DHT22;34843;48.744;8.958;2022-11-21T17:29:46;4.10;99.90
3202;DHT22;34843;48.744;8.958;2022-11-21T17:32:11;4.20;99.90
3202;DHT22;34843;48.744;8.958;2022-11-21T17:34:37;4.30;99.90
3202;DHT22;34843;48.744;8.958;2022-11-21T17:37:02;4.30;99.90
3202;DHT22;34843;48.744;8.958;2022-11-21T17:39:28;4.30;99.90
3202;DHT22;34843;48.744;8.958;2022-11-21T17:41:54;4.30;99.90
3202;DHT22;34843;48.744;8.958;2022-11-21T17:44:20;4.30;99.90
3202;DHT22;34843;48.744;8.958;2022-11-21T17:46:45;4.30;99.90
3202;DHT22;34843;48.744;8.958;2022-11-21T17:49:11;4.30;99.90
3202;DHT22;34843;48.744;8.958;2022-11-21T17:51:38;4.30;99.90
3202;DHT22;34843;48.744;8.958;2022-11-21T17:54:05;4.30;99.90
3202;DHT22;34843;48.744;8.958;2022-11-21T17:56:35;4.40;99.90
3202;DHT22;34843;48.744;8.958;2022-11-21T17:59:02;4.50;99.90
3202;DHT22;34843;48.744;8.958;2022-11-21T18:01:28;4.50;99.90
3202;DHT22;34843;48.744;8.958;2022-11-21T18:04:03;4.50;99.90
3202;DHT22;34843;48.744;8.958;2022-11-21T18:06:33;4.50;99.90
3202;DHT22;34843;48.744;8.958;2022-11-21T18:08:59;4.60;99.90
3202;DHT22;34843;48.744;8.958;2022-11-21T18:11:30;4.70;99.90
3202;DHT22;34843;48.744;8.958;2022-11-21T18:13:57;4.70;99.90
3202;DHT22;34843;48.744;8.958;2022-11-21T18:16:25;4.70;99.90